sensor_id;sensor_type;location;lat;lon;timestamp;pressure;altitude;pressure_sealevel;temperature;humidity
51289;BME280;37372;52.294;5.152;2022-07-23T00:01:14;102064.72;;;15.04;97.98
51289;BME280;37372;52.294;5.152;2022-07-23T00:03:39;102060.59;;;15.12;97.30
51289;BME280;37372;52.294;5.152;2022-07-23T00:06:05;102061.75;;;15.18;97.16
51289;BME280;37372;52.294;5.152;2022-07-23T00:08:30;102061.28;;;15.24;96.66
51289;BME280;37372;52.294;5.152;2022-07-23T00:10:56;102056.41;;;15.28;97.58
51289;BME280;37372;52.294;5.152;2022-07-23T00:13:21;102064.50;;;15.29;98.28
51289;BME280;37372;52.294;5.152;2022-07-23T00:15:46;102050.31;;;15.33;99.13
51289;BME280;37372;52.294;5.152;2022-07-23T00:18:11;102054.38;;;15.32;98.25
51289;BME280;37372;52.294;5.152;2022-07-23T00:20:37;102049.91;;;15.31;97.93
51289;BME280;37372;52.294;5.152;2022-07-23T00:23:02;102048.34;;;15.26;97.38
51289;BME280;37372;52.294;5.152;2022-07-23T00:25:28;102041.22;;;15.14;98.41
51289;BME280;37372;52.294;5.152;2022-07-23T00:27:53;102041.66;;;15.09;99.37
51289;BME280;37372;52.294;5.152;2022-07-23T00:30:18;102041.31;;;15.04;100.00
51289;BME280;37372;52.294;5.152;2022-07-23T00:32:51;102038.94;;;14.95;100.00
51289;BME280;37372;52.294;5.152;2022-07-23T00:35:19;102036.97;;;14.92;100.00
51289;BME280;37372;52.294;5.152;2022-07-23T00:37:45;102034.13;;;14.92;100.00
51289;BME280;37372;52.294;5.152;2022-07-23T00:40:11;102042.66;;;14.85;100.00
51289;BME280;37372;52.294;5.152;2022-07-23T00:42:37;102034.19;;;14.85;100.00
51289;BME280;37372;52.294;5.152;2022-07-23T00:45:03;102041.06;;;14.84;100.00
51289;BME280;37372;52.294;5.152;2022-07-23T00:47:28;102030.22;;;14.75;100.00
51289;BME280;37372;52.294;5.152;2022-07-23T00:49:53;102029.03;;;14.76;100.00
51289;BME280;37372;52.294;5.152;2022-07-23T00:52:19;102027.94;;;14.59;100.00
51289;BME280;37372;52.294;5.152;2022-07-23T00:54:44;102027.97;;;14.52;100.00
51289;BME280;37372;52.294;5.152;2022-07-23T00:57:10;102022.31;;;14.52;100.00
51289;BME280;37372;52.294;5.152;2022-07-23T00:59:35;102024.75;;;14.53;100.00
51289;BME280;37372;52.294;5.152;2022-07-23T01:02:00;102022.72;;;14.54;100.00
51289;BME280;37372;52.294;5.152;2022-07-23T01:04:26;102028.34;;;14.61;100.00
51289;BME280;37372;52.294;5.152;2022-07-23T01:06:51;102019.06;;;14.61;100.00
51289;BME280;37372;52.294;5.152;2022-07-23T01:09:17;102019.44;;;14.63;100.00
51289;BME280;37372;52.294;5.152;2022-07-23T01:11:43;102018.66;;;14.59;100.00
51289;BME280;37372;52.294;5.152;2022-07-23T01:14:18;102017.78;;;14.65;100.00
51289;BME280;37372;52.294;5.152;2022-07-23T01:16:45;102015.34;;;14.71;100.00
51289;BME280;37372;52.294;5.152;2022-07-23T01:19:12;101998.75;;;14.76;100.00
51289;BME280;37372;52.294;5.152;2022-07-23T01:21:40;102016.84;;;14.83;100.00
51289;BME280;37372;52.294;5.152;2022-07-23T01:24:07;102006.00;;;14.81;100.00
51289;BME280;37372;52.294;5.152;2022-07-23T01:26:32;101999.50;;;14.81;100.00
51289;BME280;37372;52.294;5.152;2022-07-23T01:28:58;102001.16;;;14.78;100.00
51289;BME280;37372;52.294;5.152;2022-07-23T01:31:23;102002.78;;;14.75;100.00
51289;BME280;37372;52.294;5.152;2022-07-23T01:33:49;101998.09;;;14.58;100.00
51289;BME280;37372;52.294;5.152;2022-07-23T01:36:14;102001.75;;;14.55;100.00
51289;BME280;37372;52.294;5.152;2022-07-23T01:38:40;101996.91;;;14.52;100.00
51289;BME280;37372;52.294;5.152;2022-07-23T01:41:05;101994.06;;;14.52;100.00
51289;BME280;37372;52.294;5.152;2022-07-23T01:43:30;101997.72;;;14.49;100.00
51289;BME280;37372;52.294;5.152;2022-07-23T01:45:55;101996.13;;;14.48;100.00
51289;BME280;37372;52.294;5.152;2022-07-23T01:48:21;101999.75;;;14.45;100.00
51289;BME280;37372;52.294;5.152;2022-07-23T01:50:47;101997.78;;;14.42;100.00
51289;BME280;37372;52.294;5.152;2022-07-23T01:53:13;101991.75;;;14.40;100.00
51289;BME280;37372;52.294;5.152;2022-07-23T01:55:38;101993.81;;;14.36;100.00
51289;BME280;37372;52.294;5.152;2022-07-23T01:58:04;101986.16;;;14.32;100.00
51289;BME280;37372;52.294;5.152;2022-07-23T02:00:30;101995.06;;;14.27;100.00
51289;BME280;37372;52.294;5.152;2022-07-23T02:02:56;101998.34;;;14.22;100.00
51289;BME280;37372;52.294;5.152;2022-07-23T02:05:23;102003.19;;;14.18;100.00
51289;BME280;37372;52.294;5.152;2022-07-23T02:07:48;101997.97;;;14.13;100.00
51289;BME280;37372;52.294;5.152;2022-07-23T02:10:14;101977.44;;;14.09;100.00
51289;BME280;37372;52.294;5.152;2022-07-23T02:12:39;101980.69;;;14.04;100.00
51289;BME280;37372;52.294;5.152;2022-07-23T02:15:05;101992.81;;;13.97;100.00
51289;BME280;37372;52.294;5.152;2022-07-23T02:17:30;101986.38;;;13.93;100.00
51289;BME280;37372;52.294;5.152;2022-07-23T02:19:55;101993.63;;;13.98;100.00
51289;BME280;37372;52.294;5.152;2022-07-23T02:22:21;101989.56;;;14.02;100.00
51289;BME280;37372;52.294;5.152;2022-07-23T02:24:46;101983.53;;;13.97;100.00
51289;BME280;37372;52.294;5.152;2022-07-23T02:27:11;101990.00;;;13.94;100.00
51289;BME280;37372;52.294;5.152;2022-07-23T02:29:37;101996.47;;;13.90;100.00
51289;BME280;37372;52.294;5.152;2022-07-23T02:32:02;101988.03;;;13.83;100.00
51289;BME280;37372;52.294;5.152;2022-07-23T02:34:27;101989.28;;;13.82;100.00
51289;BME280;37372;52.294;5.152;2022-07-23T02:36:53;101990.91;;;13.76;100.00
51289;BME280;37372;52.294;5.152;2022-07-23T02:39:18;101992.16;;;13.72;100.00
51289;BME280;37372;52.294;5.152;2022-07-23T02:41:43;101994.56;;;13.66;100.00
51289;BME280;37372;52.294;5.152;2022-07-23T02:44:09;102005.06;;;13.62;100.00
51289;BME280;37372;52.294;5.152;2022-07-23T02:46:34;102003.88;;;13.59;100.00
51289;BME280;37372;52.294;5.152;2022-07-23T02:48:59;102010.31;;;13.60;100.00
51289;BME280;37372;52.294;5.152;2022-07-23T02:51:25;102007.09;;;13.61;100.00
51289;BME280;37372;52.294;5.152;2022-07-23T02:53:50;102006.66;;;13.63;100.00
51289;BME280;37372;52.294;5.152;2022-07-23T02:56:15;102013.09;;;13.67;100.00
51289;BME280;37372;52.294;5.152;2022-07-23T02:58:41;102008.25;;;13.71;100.00
51289;BME280;37372;52.294;5.152;2022-07-23T03:01:06;102023.59;;;13.63;100.00
51289;BME280;37372;52.294;5.152;2022-07-23T03:03:31;102020.34;;;13.61;100.00
51289;BME280;37372;52.294;5.152;2022-07-23T03:05:58;102024.41;;;13.60;100.00
51289;BME280;37372;52.294;5.152;2022-07-23T03:08:23;102021.59;;;13.53;100.00
51289;BME280;37372;52.294;5.152;2022-07-23T03:10:48;102016.38;;;13.48;100.00
51289;BME280;37372;52.294;5.152;2022-07-23T03:13:14;102028.47;;;13.44;100.00
51289;BME280;37372;52.294;5.152;2022-07-23T03:15:39;102026.06;;;13.46;100.00
51289;BME280;37372;52.294;5.152;2022-07-23T03:18:04;102018.00;;;13.38;100.00
51289;BME280;37372;52.294;5.152;2022-07-23T03:20:30;102016.41;;;13.37;100.00
51289;BME280;37372;52.294;5.152;2022-07-23T03:22:55;102016.41;;;13.37;100.00
51289;BME280;37372;52.294;5.152;2022-07-23T03:25:20;102018.03;;;13.34;100.00
51289;BME280;37372;52.294;5.152;2022-07-23T03:27:46;102013.19;;;13.35;100.00
51289;BME280;37372;52.294;5.152;2022-07-23T03:30:11;102013.19;;;13.35;100.00
51289;BME280;37372;52.294;5.152;2022-07-23T03:32:37;102017.63;;;13.36;100.00
51289;BME280;37372;52.294;5.152;2022-07-23T03:35:03;102016.44;;;13.33;100.00
51289;BME280;37372;52.294;5.152;2022-07-23T03:37:28;102016.44;;;13.33;100.00
51289;BME280;37372;52.294;5.152;2022-07-23T03:39:53;102014.81;;;13.36;100.00
51289;BME280;37372;52.294;5.152;2022-07-23T03:42:19;102009.97;;;13.36;100.00
51289;BME280;37372;52.294;5.152;2022-07-23T03:44:44;102012.00;;;13.36;100.00
51289;BME280;37372;52.294;5.152;2022-07-23T03:47:10;102018.00;;;13.38;100.00
51289;BME280;37372;52.294;5.152;2022-07-23T03:49:35;102020.84;;;13.38;100.00
51289;BME280;37372;52.294;5.152;2022-07-23T03:52:00;102014.81;;;13.39;100.00
51289;BME280;37372;52.294;5.152;2022-07-23T03:54:26;102009.16;;;13.39;100.00
51289;BME280;37372;52.294;5.152;2022-07-23T03:56:51;102011.56;;;13.37;100.00
51289;BME280;37372;52.294;5.152;2022-07-23T03:59:16;102001.09;;;13.38;100.00
51289;BME280;37372;52.294;5.152;2022-07-23T04:01:42;101997.50;;;13.41;100.00
51289;BME280;37372;52.294;5.152;2022-07-23T04:04:07;101995.47;;;13.41;100.00
51289;BME280;37372;52.294;5.152;2022-07-23T04:06:34;101992.25;;;13.39;100.00
51289;BME280;37372;52.294;5.152;2022-07-23T04:08:59;101993.06;;;13.43;100.00
51289;BME280;37372;52.294;5.152;2022-07-23T04:11:24;101999.88;;;13.42;100.00
51289;BME280;37372;52.294;5.152;2022-07-23T04:13:49;102004.34;;;13.43;100.00
51289;BME280;37372;52.294;5.152;2022-07-23T04:16:15;102009.16;;;13.46;100.00
51289;BME280;37372;52.294;5.152;2022-07-23T04:18:40;102002.69;;;13.50;100.00
51289;BME280;37372;52.294;5.152;2022-07-23T04:21:06;102006.69;;;13.56;100.00
51289;BME280;37372;52.294;5.152;2022-07-23T04:23:31;102014.72;;;13.61;100.00
51289;BME280;37372;52.294;5.152;2022-07-23T04:25:56;102021.19;;;13.61;100.00
51289;BME280;37372;52.294;5.152;2022-07-23T04:28:22;102009.09;;;13.64;100.00
51289;BME280;37372;52.294;5.152;2022-07-23T04:30:47;102012.31;;;13.66;100.00
51289;BME280;37372;52.294;5.152;2022-07-23T04:33:12;102005.84;;;13.66;100.00
51289;BME280;37372;52.294;5.152;2022-07-23T04:35:38;102007.06;;;13.65;100.00
51289;BME280;37372;52.294;5.152;2022-07-23T04:38:03;102001.81;;;13.67;100.00
51289;BME280;37372;52.294;5.152;2022-07-23T04:40:29;102006.66;;;13.66;100.00
51289;BME280;37372;52.294;5.152;2022-07-23T04:42:56;102012.31;;;13.59;100.00
51289;BME280;37372;52.294;5.152;2022-07-23T04:45:21;102013.94;;;13.57;100.00
51289;BME280;37372;52.294;5.152;2022-07-23T04:47:48;102021.19;;;13.58;100.00
51289;BME280;37372;52.294;5.152;2022-07-23T04:50:14;102029.25;;;13.59;100.00
51289;BME280;37372;52.294;5.152;2022-07-23T04:52:44;102034.47;;;13.61;100.00
51289;BME280;37372;52.294;5.152;2022-07-23T04:55:09;102032.44;;;13.65;100.00
51289;BME280;37372;52.294;5.152;2022-07-23T04:57:34;102038.06;;;13.72;100.00
51289;BME280;37372;52.294;5.152;2022-07-23T05:00:00;102038.06;;;13.72;100.00
51289;BME280;37372;52.294;5.152;2022-07-23T05:02:25;102038.84;;;13.76;100.00
51289;BME280;37372;52.294;5.152;2022-07-23T05:04:50;102035.59;;;13.81;100.00
51289;BME280;37372;52.294;5.152;2022-07-23T05:07:16;102027.53;;;13.87;100.00
51289;BME280;37372;52.294;5.152;2022-07-23T05:09:41;102028.31;;;13.91;100.00
51289;BME280;37372;52.294;5.152;2022-07-23T05:12:07;102026.28;;;13.95;100.00
51289;BME280;37372;52.294;5.152;2022-07-23T05:14:32;102023.84;;;13.97;100.00
51289;BME280;37372;52.294;5.152;2022-07-23T05:16:57;102017.78;;;14.02;100.00
51289;BME280;37372;52.294;5.152;2022-07-23T05:19:23;102020.56;;;14.09;100.00
51289;BME280;37372;52.294;5.152;2022-07-23T05:21:48;102020.50;;;14.17;100.00
51289;BME280;37372;52.294;5.152;2022-07-23T05:24:14;102022.47;;;14.27;100.00
51289;BME280;37372;52.294;5.152;2022-07-23T05:26:39;102020.81;;;14.37;100.00
51289;BME280;37372;52.294;5.152;2022-07-23T05:29:04;102033.66;;;14.45;100.00
51289;BME280;37372;52.294;5.152;2022-07-23T05:31:30;102028.34;;;14.58;100.00
51289;BME280;37372;52.294;5.152;2022-07-23T05:33:55;102035.53;;;14.69;99.37
51289;BME280;37372;52.294;5.152;2022-07-23T05:36:20;102041.47;;;14.86;97.88
51289;BME280;37372;52.294;5.152;2022-07-23T05:38:45;102042.13;;;15.01;97.09
51289;BME280;37372;52.294;5.152;2022-07-23T05:41:11;102046.13;;;15.07;97.23
51289;BME280;37372;52.294;5.152;2022-07-23T05:43:36;102052.97;;;15.09;96.72
51289;BME280;37372;52.294;5.152;2022-07-23T05:46:01;102048.56;;;15.05;95.75
51289;BME280;37372;52.294;5.152;2022-07-23T05:48:27;102057.06;;;15.01;94.95
51289;BME280;37372;52.294;5.152;2022-07-23T05:50:52;102053.81;;;15.03;94.33
51289;BME280;37372;52.294;5.152;2022-07-23T05:53:17;102050.94;;;15.10;93.47
51289;BME280;37372;52.294;5.152;2022-07-23T05:55:43;102045.94;;;15.25;91.89
51289;BME280;37372;52.294;5.152;2022-07-23T05:58:08;102053.91;;;15.37;88.72
51289;BME280;37372;52.294;5.152;2022-07-23T06:00:34;102052.91;;;15.54;89.18
51289;BME280;37372;52.294;5.152;2022-07-23T06:02:59;102051.19;;;15.64;87.90
51289;BME280;37372;52.294;5.152;2022-07-23T06:05:24;102064.06;;;15.69;85.92
51289;BME280;37372;52.294;5.152;2022-07-23T06:07:50;102061.09;;;15.83;86.05
51289;BME280;37372;52.294;5.152;2022-07-23T06:10:15;102061.38;;;15.92;86.25
51289;BME280;37372;52.294;5.152;2022-07-23T06:12:41;102063.38;;;15.95;82.15
51289;BME280;37372;52.294;5.152;2022-07-23T06:15:07;102067.63;;;16.11;83.75
51289;BME280;37372;52.294;5.152;2022-07-23T06:17:33;102070.31;;;16.21;84.08
51289;BME280;37372;52.294;5.152;2022-07-23T06:19:58;102064.13;;;16.30;84.86
51289;BME280;37372;52.294;5.152;2022-07-23T06:22:24;102054.34;;;16.35;84.68
51289;BME280;37372;52.294;5.152;2022-07-23T06:24:50;102055.84;;;16.43;84.05
51289;BME280;37372;52.294;5.152;2022-07-23T06:27:17;102060.53;;;16.57;82.34
51289;BME280;37372;52.294;5.152;2022-07-23T06:29:42;102059.56;;;16.67;80.63
51289;BME280;37372;52.294;5.152;2022-07-23T06:32:08;102058.69;;;16.70;80.77
51289;BME280;37372;52.294;5.152;2022-07-23T06:34:33;102070.66;;;16.81;80.99
51289;BME280;37372;52.294;5.152;2022-07-23T06:36:59;102069.22;;;16.97;79.54
51289;BME280;37372;52.294;5.152;2022-07-23T06:39:25;102070.34;;;17.03;79.27
51289;BME280;37372;52.294;5.152;2022-07-23T06:41:50;102076.00;;;17.03;78.85
51289;BME280;37372;52.294;5.152;2022-07-23T06:44:16;102075.44;;;17.35;77.99
51289;BME280;37372;52.294;5.152;2022-07-23T06:46:41;102078.03;;;17.69;74.91
51289;BME280;37372;52.294;5.152;2022-07-23T06:49:07;102082.59;;;17.87;70.50
51289;BME280;37372;52.294;5.152;2022-07-23T06:51:32;102090.22;;;18.10;69.07
51289;BME280;37372;52.294;5.152;2022-07-23T06:53:57;102088.75;;;18.21;66.69
51289;BME280;37372;52.294;5.152;2022-07-23T06:56:23;102097.91;;;18.29;67.42
51289;BME280;37372;52.294;5.152;2022-07-23T06:58:49;102095.91;;;18.30;67.08
51289;BME280;37372;52.294;5.152;2022-07-23T07:01:14;102088.06;;;18.34;68.26
51289;BME280;37372;52.294;5.152;2022-07-23T07:03:39;102083.56;;;17.56;69.83
51289;BME280;37372;52.294;5.152;2022-07-23T07:06:05;102079.09;;;17.35;70.03
51289;BME280;37372;52.294;5.152;2022-07-23T07:08:30;102088.44;;;17.32;67.25
51289;BME280;37372;52.294;5.152;2022-07-23T07:10:55;102082.91;;;17.25;68.67
51289;BME280;37372;52.294;5.152;2022-07-23T07:13:21;102090.72;;;16.94;71.19
51289;BME280;37372;52.294;5.152;2022-07-23T07:15:46;102085.88;;;16.95;72.20
51289;BME280;37372;52.294;5.152;2022-07-23T07:18:11;102092.22;;;17.02;72.86
51289;BME280;37372;52.294;5.152;2022-07-23T07:20:37;102097.63;;;17.17;73.43
51289;BME280;37372;52.294;5.152;2022-07-23T07:23:02;102096.59;;;17.30;73.56
51289;BME280;37372;52.294;5.152;2022-07-23T07:25:28;102091.66;;;17.58;72.31
51289;BME280;37372;52.294;5.152;2022-07-23T07:27:53;102101.00;;;17.55;70.46
51289;BME280;37372;52.294;5.152;2022-07-23T07:30:18;102103.56;;;17.69;71.65
51289;BME280;37372;52.294;5.152;2022-07-23T07:32:44;102111.47;;;17.82;70.81
51289;BME280;37372;52.294;5.152;2022-07-23T07:35:09;102115.50;;;17.84;69.56
51289;BME280;37372;52.294;5.152;2022-07-23T07:37:35;102117.03;;;17.65;70.73
51289;BME280;37372;52.294;5.152;2022-07-23T07:40:00;102111.16;;;17.76;69.94
51289;BME280;37372;52.294;5.152;2022-07-23T07:42:26;102106.25;;;17.56;69.52
51289;BME280;37372;52.294;5.152;2022-07-23T07:44:51;102111.50;;;17.58;68.41
51289;BME280;37372;52.294;5.152;2022-07-23T07:47:17;102107.94;;;17.30;71.71
51289;BME280;37372;52.294;5.152;2022-07-23T07:49:42;102110.91;;;17.23;69.68
51289;BME280;37372;52.294;5.152;2022-07-23T07:52:08;102106.13;;;17.40;72.31
51289;BME280;37372;52.294;5.152;2022-07-23T07:54:33;102112.34;;;17.55;71.89
51289;BME280;37372;52.294;5.152;2022-07-23T07:56:59;102108.66;;;17.34;71.76
51289;BME280;37372;52.294;5.152;2022-07-23T07:59:24;102109.22;;;17.49;71.90
51289;BME280;37372;52.294;5.152;2022-07-23T08:01:50;102116.06;;;17.28;69.92
51289;BME280;37372;52.294;5.152;2022-07-23T08:04:15;102129.81;;;17.30;69.59
51289;BME280;37372;52.294;5.152;2022-07-23T08:06:41;102124.56;;;17.52;70.72
51289;BME280;37372;52.294;5.152;2022-07-23T08:09:06;102127.91;;;17.47;72.50
51289;BME280;37372;52.294;5.152;2022-07-23T08:11:31;102121.19;;;17.37;69.06
51289;BME280;37372;52.294;5.152;2022-07-23T08:13:57;102119.50;;;17.63;68.89
51289;BME280;37372;52.294;5.152;2022-07-23T08:16:22;102126.16;;;17.76;70.87
51289;BME280;37372;52.294;5.152;2022-07-23T08:18:47;102134.63;;;17.80;69.09
51289;BME280;37372;52.294;5.152;2022-07-23T08:21:13;102133.88;;;17.76;67.36
51289;BME280;37372;52.294;5.152;2022-07-23T08:23:38;102134.56;;;17.84;69.34
51289;BME280;37372;52.294;5.152;2022-07-23T08:26:03;102130.22;;;17.75;69.74
51289;BME280;37372;52.294;5.152;2022-07-23T08:28:29;102131.72;;;17.84;68.39
51289;BME280;37372;52.294;5.152;2022-07-23T08:30:58;102133.91;;;17.72;67.54
51289;BME280;37372;52.294;5.152;2022-07-23T08:33:24;102135.03;;;17.78;67.87
51289;BME280;37372;52.294;5.152;2022-07-23T08:35:50;102135.28;;;17.88;71.02
51289;BME280;37372;52.294;5.152;2022-07-23T08:38:20;102130.75;;;17.90;69.39
51289;BME280;37372;52.294;5.152;2022-07-23T08:40:47;102129.72;;;17.81;69.93
51289;BME280;37372;52.294;5.152;2022-07-23T08:43:18;102130.13;;;18.03;69.25
51289;BME280;37372;52.294;5.152;2022-07-23T08:45:46;102120.06;;;18.18;69.42
51289;BME280;37372;52.294;5.152;2022-07-23T08:48:14;102129.59;;;18.28;68.22
51289;BME280;37372;52.294;5.152;2022-07-23T08:50:46;102130.53;;;18.41;66.87
51289;BME280;37372;52.294;5.152;2022-07-23T08:53:11;102139.66;;;18.52;66.29
51289;BME280;37372;52.294;5.152;2022-07-23T08:55:37;102134.94;;;18.62;66.59
51289;BME280;37372;52.294;5.152;2022-07-23T08:58:03;102140.72;;;18.75;65.73
51289;BME280;37372;52.294;5.152;2022-07-23T09:00:29;102137.97;;;18.91;65.77
51289;BME280;37372;52.294;5.152;2022-07-23T09:02:55;102136.91;;;19.01;65.04
51289;BME280;37372;52.294;5.152;2022-07-23T09:05:21;102137.34;;;19.00;65.76
51289;BME280;37372;52.294;5.152;2022-07-23T09:08:15;102138.69;;;19.12;65.27
51289;BME280;37372;52.294;5.152;2022-07-23T09:10:58;102146.84;;;19.09;63.66
51289;BME280;37372;52.294;5.152;2022-07-23T09:13:45;102147.38;;;19.21;64.38
51289;BME280;37372;52.294;5.152;2022-07-23T09:16:24;102149.69;;;19.09;63.66
51289;BME280;37372;52.294;5.152;2022-07-23T09:18:52;102149.25;;;18.95;63.15
51289;BME280;37372;52.294;5.152;2022-07-23T09:23:46;102150.13;;;19.08;64.33
51289;BME280;37372;52.294;5.152;2022-07-23T09:29:01;102145.88;;;19.33;63.20
51289;BME280;37372;52.294;5.152;2022-07-23T09:31:32;102150.50;;;19.43;62.14
51289;BME280;37372;52.294;5.152;2022-07-23T09:34:09;102149.53;;;19.17;60.81
51289;BME280;37372;52.294;5.152;2022-07-23T09:36:35;102152.00;;;19.15;62.14
51289;BME280;37372;52.294;5.152;2022-07-23T09:39:00;102143.94;;;19.29;63.87
51289;BME280;37372;52.294;5.152;2022-07-23T09:41:34;102144.19;;;19.35;62.79
51289;BME280;37372;52.294;5.152;2022-07-23T09:44:06;102150.41;;;19.46;63.31
51289;BME280;37372;52.294;5.152;2022-07-23T09:46:32;102158.41;;;19.51;63.84
51289;BME280;37372;52.294;5.152;2022-07-23T09:48:57;102154.66;;;19.55;62.77
51289;BME280;37372;52.294;5.152;2022-07-23T09:51:24;102152.19;;;19.73;62.90
51289;BME280;37372;52.294;5.152;2022-07-23T09:54:01;102158.97;;;19.46;62.33
51289;BME280;37372;52.294;5.152;2022-07-23T09:56:28;102154.81;;;19.64;64.68
51289;BME280;37372;52.294;5.152;2022-07-23T09:58:53;102152.63;;;19.71;63.08
51289;BME280;37372;52.294;5.152;2022-07-23T10:01:31;102157.88;;;19.73;63.18
51289;BME280;37372;52.294;5.152;2022-07-23T10:03:57;102156.41;;;19.81;62.65
51289;BME280;37372;52.294;5.152;2022-07-23T10:06:23;102154.28;;;19.85;61.69
51289;BME280;37372;52.294;5.152;2022-07-23T10:08:50;102151.09;;;19.83;60.86
51289;BME280;37372;52.294;5.152;2022-07-23T10:11:17;102152.78;;;19.81;60.95
51289;BME280;37372;52.294;5.152;2022-07-23T10:13:44;102152.94;;;19.90;61.10
51289;BME280;37372;52.294;5.152;2022-07-23T10:16:12;102152.28;;;19.99;61.26
51289;BME280;37372;52.294;5.152;2022-07-23T10:18:38;102149.25;;;20.06;61.29
51289;BME280;37372;52.294;5.152;2022-07-23T10:21:07;102154.38;;;20.11;60.55
51289;BME280;37372;52.294;5.152;2022-07-23T10:23:36;102157.16;;;20.27;61.04
51289;BME280;37372;52.294;5.152;2022-07-23T10:26:12;102158.78;;;20.28;60.38
51289;BME280;37372;52.294;5.152;2022-07-23T10:32:00;102155.97;;;20.12;59.92
51289;BME280;37372;52.294;5.152;2022-07-23T10:34:41;102156.63;;;20.03;59.84
51289;BME280;37372;52.294;5.152;2022-07-23T10:37:22;102154.78;;;19.97;59.99
51289;BME280;37372;52.294;5.152;2022-07-23T10:42:37;102152.44;;;20.08;59.14
51289;BME280;37372;52.294;5.152;2022-07-23T10:45:22;102155.97;;;20.12;58.43
51289;BME280;37372;52.294;5.152;2022-07-23T10:47:48;102155.84;;;20.03;57.86
51289;BME280;37372;52.294;5.152;2022-07-23T10:50:23;102149.84;;;20.13;57.65
51289;BME280;37372;52.294;5.152;2022-07-23T10:53:15;102147.00;;;20.13;57.57
51289;BME280;37372;52.294;5.152;2022-07-23T10:55:50;102146.66;;;20.24;56.54
51289;BME280;37372;52.294;5.152;2022-07-23T10:58:25;102146.91;;;20.30;56.24
51289;BME280;37372;52.294;5.152;2022-07-23T11:01:36;102151.25;;;20.34;56.89
51289;BME280;37372;52.294;5.152;2022-07-23T11:04:03;102142.84;;;20.44;58.57
51289;BME280;37372;52.294;5.152;2022-07-23T11:09:30;102148.47;;;20.60;56.45
51289;BME280;37372;52.294;5.152;2022-07-23T11:15:11;102144.22;;;20.52;55.81
51289;BME280;37372;52.294;5.152;2022-07-23T11:20:18;102145.50;;;20.51;55.56
51289;BME280;37372;52.294;5.152;2022-07-23T11:25:28;102133.56;;;20.81;56.27
51289;BME280;37372;52.294;5.152;2022-07-23T11:27:54;102144.41;;;20.87;55.24
51289;BME280;37372;52.294;5.152;2022-07-23T11:33:16;102138.34;;;20.85;55.73
51289;BME280;37372;52.294;5.152;2022-07-23T11:35:49;102141.84;;;20.63;55.74
51289;BME280;37372;52.294;5.152;2022-07-23T11:38:18;102138.78;;;20.70;57.33
51289;BME280;37372;52.294;5.152;2022-07-23T11:40:48;102144.41;;;20.74;56.65
51289;BME280;37372;52.294;5.152;2022-07-23T11:43:14;102141.66;;;20.83;57.59
51289;BME280;37372;52.294;5.152;2022-07-23T11:45:44;102142.22;;;20.91;57.38
51289;BME280;37372;52.294;5.152;2022-07-23T11:48:30;102140.41;;;20.97;56.43
51289;BME280;37372;52.294;5.152;2022-07-23T11:50:56;102147.81;;;20.94;56.59
51289;BME280;37372;52.294;5.152;2022-07-23T11:53:23;102148.03;;;20.74;56.29
51289;BME280;37372;52.294;5.152;2022-07-23T11:55:49;102146.78;;;20.88;55.99
51289;BME280;37372;52.294;5.152;2022-07-23T11:58:15;102142.00;;;20.98;56.13
51289;BME280;37372;52.294;5.152;2022-07-23T12:00:41;102136.06;;;20.79;56.02
51289;BME280;37372;52.294;5.152;2022-07-23T12:03:07;102128.31;;;20.93;57.51
51289;BME280;37372;52.294;5.152;2022-07-23T12:05:34;102133.78;;;21.00;57.87
51289;BME280;37372;52.294;5.152;2022-07-23T12:08:02;102138.56;;;20.90;56.01
51289;BME280;37372;52.294;5.152;2022-07-23T12:10:39;102130.59;;;20.98;56.05
51289;BME280;37372;52.294;5.152;2022-07-23T12:13:09;102123.28;;;20.97;56.13
51289;BME280;37372;52.294;5.152;2022-07-23T12:15:40;102126.16;;;20.97;55.52
51289;BME280;37372;52.294;5.152;2022-07-23T12:18:08;102123.06;;;21.04;55.45
51289;BME280;37372;52.294;5.152;2022-07-23T12:20:45;102120.78;;;20.99;55.10
51289;BME280;37372;52.294;5.152;2022-07-23T12:23:13;102114.72;;;21.10;56.42
51289;BME280;37372;52.294;5.152;2022-07-23T12:25:41;102106.47;;;21.24;56.92
51289;BME280;37372;52.294;5.152;2022-07-23T12:28:13;102119.47;;;21.25;56.71
51289;BME280;37372;52.294;5.152;2022-07-23T12:30:50;102115.47;;;21.36;56.98
51289;BME280;37372;52.294;5.152;2022-07-23T12:33:23;102119.34;;;21.42;55.30
51289;BME280;37372;52.294;5.152;2022-07-23T12:35:49;102107.44;;;21.56;56.43
51289;BME280;37372;52.294;5.152;2022-07-23T12:38:19;102099.06;;;21.62;56.24
51289;BME280;37372;52.294;5.152;2022-07-23T12:40:47;102111.03;;;21.70;55.63
51289;BME280;37372;52.294;5.152;2022-07-23T12:43:22;102106.25;;;21.66;55.07
51289;BME280;37372;52.294;5.152;2022-07-23T12:46:04;102110.25;;;21.69;54.81
51289;BME280;37372;52.294;5.152;2022-07-23T12:48:31;102105.22;;;21.73;55.18
51289;BME280;37372;52.294;5.152;2022-07-23T12:51:02;102096.97;;;21.75;54.41
51289;BME280;37372;52.294;5.152;2022-07-23T12:53:36;102100.28;;;21.74;54.54
51289;BME280;37372;52.294;5.152;2022-07-23T12:56:05;102098.16;;;21.65;54.60
51289;BME280;37372;52.294;5.152;2022-07-23T12:58:50;102102.94;;;21.68;54.96
51289;BME280;37372;52.294;5.152;2022-07-23T13:06:58;102097.50;;;21.83;55.59
51289;BME280;37372;52.294;5.152;2022-07-23T13:09:29;102103.19;;;21.83;54.08
51289;BME280;37372;52.294;5.152;2022-07-23T13:11:56;102094.19;;;21.84;54.13
51289;BME280;37372;52.294;5.152;2022-07-23T13:14:22;102100.28;;;21.74;54.21
51289;BME280;37372;52.294;5.152;2022-07-23T13:16:49;102092.00;;;21.88;54.95